createdAt,value
2022-08-05T00:00:16.231Z,42.60
2022-08-05T00:02:51.021Z,42.70
2022-08-05T00:06:01.922Z,43.00
2022-08-05T00:08:19.765Z,42.50
2022-08-05T00:10:53.255Z,42.40
2022-08-05T00:13:20.111Z,42.00
2022-08-05T00:16:06.367Z,42.00
2022-08-05T00:18:36.240Z,42.40
2022-08-05T00:21:06.951Z,42.40
2022-08-05T00:23:45.973Z,42.60
2022-08-05T00:26:15.103Z,42.40
2022-08-05T00:28:43.822Z,42.30
2022-08-05T00:31:13.315Z,42.00
2022-08-05T00:34:53.351Z,42.10
2022-08-05T00:37:12.461Z,42.40
2022-08-05T00:39:14.301Z,43.00
2022-08-05T00:41:51.790Z,42.60
2022-08-05T00:44:19.279Z,42.40
2022-08-05T00:46:47.683Z,42.00
2022-08-05T00:49:21.114Z,41.90
2022-08-05T00:51:51.178Z,41.40
2022-08-05T00:54:19.144Z,41.40
2022-08-05T00:56:51.642Z,41.20
2022-08-05T00:59:18.783Z,41.00
2022-08-05T01:01:48.476Z,40.90
2022-08-05T01:04:16.135Z,40.80
2022-08-05T01:06:48.982Z,40.80
2022-08-05T01:09:20.224Z,40.90
2022-08-05T01:11:51.698Z,40.80
2022-08-05T01:14:28.307Z,40.70
2022-08-05T01:17:17.679Z,40.80
2022-08-05T01:20:02.149Z,41.10
2022-08-05T01:22:53.985Z,41.40
2022-08-05T01:25:40.210Z,41.50
2022-08-05T01:28:30.018Z,41.40
2022-08-05T01:31:29.156Z,41.50
2022-08-05T01:34:02.884Z,41.80
2022-08-05T01:36:35.564Z,42.00
2022-08-05T01:39:11.824Z,42.40
2022-08-05T01:41:40.907Z,42.70
2022-08-05T01:44:13.044Z,42.90
2022-08-05T01:46:46.365Z,42.90
2022-08-05T01:49:23.086Z,42.90
2022-08-05T01:51:52.045Z,42.70
2022-08-05T01:54:20.473Z,42.80
2022-08-05T01:58:13.647Z,43.60
2022-08-05T01:59:41.918Z,44.30
2022-08-05T02:02:15.921Z,44.50
2022-08-05T02:04:46.095Z,44.60
2022-08-05T02:07:22.049Z,44.90
2022-08-05T02:09:50.348Z,45.20
2022-08-05T02:12:55.084Z,45.40
2022-08-05T02:15:33.592Z,45.30
2022-08-05T02:18:28.862Z,46.10
2022-08-05T02:21:17.223Z,45.50
2022-08-05T02:23:48.406Z,45.40
2022-08-05T02:26:20.807Z,45.40
2022-08-05T02:28:50.061Z,45.30
2022-08-05T02:31:28.705Z,45.20
2022-08-05T02:34:14.736Z,45.60
2022-08-05T02:36:52.652Z,46.00
2022-08-05T02:39:22.600Z,46.00
2022-08-05T02:42:00.634Z,46.20
2022-08-05T02:44:30.265Z,46.50
2022-08-05T02:47:00.865Z,46.80
2022-08-05T02:49:35.762Z,47.10
2022-08-05T02:52:07.961Z,47.30
2022-08-05T02:54:41.165Z,47.20
2022-08-05T02:58:09.881Z,47.30
2022-08-05T02:59:57.667Z,47.50
2022-08-05T03:02:34.861Z,47.80
2022-08-05T03:05:03.024Z,48.40
2022-08-05T03:08:00.175Z,48.50
2022-08-05T03:10:21.754Z,48.60
2022-08-05T03:12:52.403Z,48.40
2022-08-05T03:15:20.642Z,48.50
2022-08-05T03:17:47.378Z,48.30
2022-08-05T03:20:14.108Z,48.50
2022-08-05T03:22:46.874Z,48.60
2022-08-05T03:25:33.904Z,48.60
2022-08-05T03:28:08.273Z,48.70
2022-08-05T03:30:36.253Z,48.20
2022-08-05T03:33:05.844Z,48.00
2022-08-05T03:35:33.961Z,47.90
2022-08-05T03:38:07.378Z,47.80
2022-08-05T03:40:34.520Z,47.80
2022-08-05T03:43:58.986Z,47.80
2022-08-05T03:45:58.290Z,47.80
2022-08-05T03:48:29.805Z,47.50
2022-08-05T03:52:39.069Z,47.60
2022-08-05T03:55:34.061Z,47.50
2022-08-05T03:57:16.398Z,47.60
2022-08-05T03:59:54.907Z,47.80
2022-08-05T04:02:39.194Z,48.30
2022-08-05T04:05:12.941Z,48.70
2022-08-05T04:07:58.081Z,48.80
2022-08-05T04:10:37.210Z,48.80
2022-08-05T04:13:07.917Z,48.90
2022-08-05T04:15:36.060Z,49.10
2022-08-05T04:18:08.006Z,49.30
2022-08-05T04:20:36.915Z,49.60
2022-08-05T04:23:03.858Z,49.50
2022-08-05T04:25:58.000Z,49.60
2022-08-05T04:28:18.579Z,49.90
2022-08-05T04:30:45.733Z,49.80
2022-08-05T04:33:12.830Z,50.30
2022-08-05T04:36:10.980Z,50.60
2022-08-05T04:38:39.926Z,50.60
2022-08-05T04:41:07.591Z,50.60
2022-08-05T04:43:37.843Z,50.30
2022-08-05T04:46:07.551Z,50.50
2022-08-05T04:48:34.362Z,50.60
2022-08-05T04:51:10.065Z,50.50
2022-08-05T04:53:40.243Z,50.50
2022-08-05T04:56:32.958Z,50.20
2022-08-05T04:58:54.909Z,50.60
2022-08-05T05:02:08.263Z,51.00
2022-08-05T05:04:08.636Z,51.70
2022-08-05T05:06:40.199Z,52.20
2022-08-05T05:09:13.361Z,52.70
2022-08-05T05:11:53.248Z,53.20
2022-08-05T05:14:31.707Z,53.50
2022-08-05T05:17:00.358Z,53.60
2022-08-05T05:19:36.501Z,53.60
2022-08-05T05:22:23.713Z,53.60
2022-08-05T05:24:59.823Z,53.70
2022-08-05T05:27:44.213Z,53.30
2022-08-05T05:30:28.737Z,53.50
2022-08-05T05:33:00.221Z,53.60
2022-08-05T05:35:34.244Z,53.60
2022-08-05T05:38:09.199Z,53.80
2022-08-05T05:40:47.928Z,53.80
2022-08-05T05:43:22.184Z,53.40
2022-08-05T05:46:03.846Z,53.10
2022-08-05T05:48:32.236Z,53.40
2022-08-05T05:51:15.152Z,53.60
2022-08-05T05:53:54.405Z,53.50
2022-08-05T05:56:32.562Z,53.30
2022-08-05T05:59:06.466Z,53.20
2022-08-05T06:01:57.625Z,53.30
2022-08-05T06:04:25.248Z,53.30
2022-08-05T06:06:52.101Z,53.20
2022-08-05T06:09:25.606Z,53.20
2022-08-05T06:12:02.927Z,53.10
2022-08-05T06:14:34.740Z,53.00
2022-08-05T06:17:22.513Z,53.20
2022-08-05T06:19:57.114Z,53.20
2022-08-05T06:22:28.621Z,53.80
2022-08-05T06:24:55.870Z,53.90
2022-08-05T06:28:09.497Z,53.80
2022-08-05T06:30:20.168Z,53.80
2022-08-05T06:32:48.280Z,54.00
2022-08-05T06:35:22.100Z,53.90
2022-08-05T06:38:11.237Z,54.00
2022-08-05T06:40:44.516Z,54.00
2022-08-05T06:43:57.544Z,53.90
2022-08-05T06:46:03.961Z,53.80
2022-08-05T06:48:56.186Z,54.60
2022-08-05T06:51:29.040Z,55.00
2022-08-05T06:54:02.077Z,55.00
2022-08-05T06:56:29.770Z,54.90
2022-08-05T06:58:56.670Z,55.30
2022-08-05T07:01:31.945Z,55.40
2022-08-05T07:04:00.393Z,55.30
2022-08-05T07:06:28.600Z,55.40
2022-08-05T07:08:55.441Z,55.50
2022-08-05T07:11:25.397Z,55.60
2022-08-05T07:14:20.153Z,55.70
2022-08-05T07:17:59.528Z,55.80
2022-08-05T07:22:28.540Z,55.90
2022-08-05T07:25:22.561Z,56.00
2022-08-05T07:27:57.792Z,56.10
2022-08-05T07:30:31.058Z,56.10
2022-08-05T07:33:05.469Z,56.10
2022-08-05T07:36:03.089Z,56.20
2022-08-05T07:38:33.932Z,56.20
2022-08-05T07:41:35.092Z,56.20
2022-08-05T07:43:58.074Z,56.20
2022-08-05T07:46:26.893Z,56.00
2022-08-05T07:49:01.908Z,56.10
2022-08-05T07:51:41.130Z,56.30
2022-08-05T07:54:26.574Z,56.20
2022-08-05T07:57:01.717Z,56.40
2022-08-05T07:59:41.414Z,56.20
2022-08-05T08:02:16.744Z,56.20
2022-08-05T08:04:49.177Z,55.90
2022-08-05T08:07:22.003Z,55.90
2022-08-05T08:09:52.263Z,56.40
2022-08-05T08:12:35.057Z,55.40
2022-08-05T08:15:09.766Z,55.40
2022-08-05T08:17:46.144Z,55.30
2022-08-05T08:20:43.557Z,55.20
2022-08-05T08:23:04.332Z,55.20
2022-08-05T08:25:59.898Z,55.30
2022-08-05T08:28:35.718Z,55.20
2022-08-05T08:31:07.914Z,55.10
2022-08-05T08:33:35.907Z,54.90
2022-08-05T08:38:56.151Z,54.60
2022-08-05T08:41:51.134Z,54.50
2022-08-05T08:45:22.763Z,54.50
2022-08-05T08:47:21.961Z,54.30
2022-08-05T08:50:23.197Z,54.40
2022-08-05T08:52:51.447Z,54.20
2022-08-05T08:56:02.191Z,54.50
2022-08-05T08:58:08.931Z,54.90
2022-08-05T09:00:36.250Z,55.40
2022-08-05T09:03:05.821Z,55.70
2022-08-05T09:05:38.654Z,56.30
2022-08-05T09:08:20.302Z,56.20
2022-08-05T09:10:54.312Z,56.10
2022-08-05T09:13:21.352Z,56.20
2022-08-05T09:15:51.095Z,56.20
2022-08-05T09:18:18.284Z,55.80
2022-08-05T09:20:45.900Z,55.50
2022-08-05T09:23:19.982Z,55.10
2022-08-05T09:26:06.416Z,54.70
2022-08-05T09:28:37.776Z,54.30
2022-08-05T09:31:23.542Z,54.10
2022-08-05T09:33:59.143Z,54.20
2022-08-05T09:36:54.655Z,53.70
2022-08-05T09:39:27.557Z,53.30
2022-08-05T09:42:08.748Z,53.20
2022-08-05T09:44:42.434Z,52.80
2022-08-05T09:47:20.655Z,52.70
2022-08-05T09:50:01.375Z,52.80
2022-08-05T09:52:35.032Z,52.70
2022-08-05T09:55:58.452Z,52.60
2022-08-05T09:57:59.864Z,52.50
2022-08-05T10:00:27.799Z,52.50
2022-08-05T10:02:58.416Z,52.50
2022-08-05T10:05:28.007Z,52.50
2022-08-05T10:08:34.492Z,52.60
2022-08-05T10:10:44.067Z,52.50
2022-08-05T10:13:11.403Z,52.30
2022-08-05T10:15:41.748Z,52.40
2022-08-05T10:18:19.794Z,52.30
2022-08-05T10:20:50.222Z,52.20
2022-08-05T10:23:56.065Z,52.40
2022-08-05T10:26:15.131Z,52.40
2022-08-05T10:28:44.892Z,52.40
2022-08-05T10:32:51.791Z,52.60
2022-08-05T10:34:00.420Z,52.60
2022-08-05T10:36:27.587Z,52.70
2022-08-05T10:39:10.203Z,52.70
2022-08-05T10:41:47.351Z,52.60
2022-08-05T10:44:18.731Z,52.50
2022-08-05T10:46:45.452Z,52.40
2022-08-05T10:49:16.834Z,52.40
2022-08-05T10:51:59.894Z,52.70
2022-08-05T10:54:56.225Z,52.70
2022-08-05T10:57:30.982Z,52.90
2022-08-05T11:00:23.980Z,53.30
2022-08-05T11:03:25.730Z,53.20
2022-08-05T11:06:15.381Z,53.10
2022-08-05T11:09:16.271Z,52.90
2022-08-05T11:11:52.391Z,53.10
2022-08-05T11:15:00.931Z,52.90
2022-08-05T11:17:59.716Z,52.60
2022-08-05T11:20:44.147Z,53.10
2022-08-05T11:23:57.700Z,53.00
2022-08-05T11:26:16.883Z,53.30
2022-08-05T11:28:56.401Z,53.20
2022-08-05T11:31:57.835Z,52.70
2022-08-05T11:34:51.168Z,51.50
2022-08-05T11:38:26.811Z,51.70
2022-08-05T11:41:15.445Z,50.90
2022-08-05T11:44:05.640Z,50.60
2022-08-05T11:46:58.404Z,50.20
2022-08-05T11:49:34.153Z,49.90
2022-08-05T11:52:01.904Z,49.70
2022-08-05T11:54:40.365Z,49.90
2022-08-05T11:57:26.007Z,49.10
2022-08-05T11:59:54.662Z,49.10
2022-08-05T12:02:31.425Z,49.30
2022-08-05T12:05:07.996Z,48.60
2022-08-05T12:08:08.553Z,48.00
2022-08-05T12:10:38.488Z,48.90
2022-08-05T12:13:16.906Z,48.80
2022-08-05T12:15:50.193Z,48.20
2022-08-05T12:18:33.317Z,47.70
2022-08-05T12:21:31.835Z,47.10
2022-08-05T12:24:04.409Z,46.40
2022-08-05T12:26:58.287Z,46.90
2022-08-05T12:29:27.061Z,47.10
2022-08-05T12:32:01.745Z,47.00
2022-08-05T12:34:35.791Z,47.20
2022-08-05T12:37:17.085Z,46.80
2022-08-05T12:39:51.165Z,46.30
2022-08-05T12:42:20.349Z,46.30
2022-08-05T12:44:47.909Z,45.90
2022-08-05T12:47:27.433Z,46.00
2022-08-05T12:50:04.198Z,45.00
2022-08-05T12:52:39.467Z,45.30
2022-08-05T12:55:28.381Z,45.40
2022-08-05T12:58:49.312Z,45.20
2022-08-05T13:02:01.381Z,44.90
2022-08-05T13:03:41.388Z,45.10
2022-08-05T13:06:12.905Z,45.30
2022-08-05T13:08:40.208Z,44.90
2022-08-05T13:11:07.906Z,44.10
2022-08-05T13:14:06.601Z,44.30
2022-08-05T13:16:28.055Z,44.10
2022-08-05T13:18:58.428Z,44.60
2022-08-05T13:21:28.127Z,43.90
2022-08-05T13:23:55.643Z,43.90
2022-08-05T13:26:29.995Z,44.10
2022-08-05T13:28:57.531Z,43.70
2022-08-05T13:31:33.731Z,43.90
2022-08-05T13:34:22.727Z,43.70
2022-08-05T13:36:53.921Z,43.40
2022-08-05T13:40:13.858Z,43.50
2022-08-05T13:42:14.338Z,43.60
2022-08-05T13:44:46.192Z,43.20
2022-08-05T13:47:35.447Z,43.60
2022-08-05T13:50:04.379Z,43.80
2022-08-05T13:52:31.846Z,43.70
2022-08-05T13:55:07.628Z,43.70
2022-08-05T13:57:50.774Z,43.10
2022-08-05T14:00:19.619Z,42.20
2022-08-05T14:02:54.627Z,42.50
2022-08-05T14:05:48.426Z,42.30
2022-08-05T14:08:20.052Z,41.10
2022-08-05T14:10:48.887Z,41.10
2022-08-05T14:13:15.966Z,41.10
2022-08-05T14:16:08.907Z,41.10
2022-08-05T14:18:30.081Z,41.10
2022-08-05T14:20:56.801Z,41.10
2022-08-05T14:23:25.680Z,41.10
2022-08-05T14:25:58.845Z,41.90
2022-08-05T14:28:28.587Z,42.10
2022-08-05T14:30:56.801Z,42.10
2022-08-05T14:33:23.615Z,41.50
2022-08-05T14:35:52.027Z,40.60
2022-08-05T14:38:31.987Z,40.50
2022-08-05T14:41:06.105Z,39.30
2022-08-05T14:43:53.873Z,39.80
2022-08-05T14:46:29.143Z,39.90
2022-08-05T14:49:06.499Z,40.20
2022-08-05T14:51:34.008Z,40.60
2022-08-05T14:54:27.575Z,40.60
2022-08-05T14:56:48.368Z,40.20
2022-08-05T14:59:15.857Z,40.10
2022-08-05T15:01:49.184Z,39.90
2022-08-05T15:04:20.664Z,39.80
2022-08-05T15:06:50.407Z,39.60
2022-08-05T15:09:50.511Z,39.80
2022-08-05T15:12:06.455Z,40.10
2022-08-05T15:14:48.415Z,40.20
2022-08-05T15:17:46.406Z,40.10
2022-08-05T15:20:07.517Z,39.90
2022-08-05T15:22:37.258Z,39.50
2022-08-05T15:25:13.826Z,39.10
2022-08-05T15:27:42.805Z,39.00
2022-08-05T15:30:18.954Z,38.70
2022-08-05T15:32:46.588Z,38.10
2022-08-05T15:35:13.589Z,38.10
2022-08-05T15:38:33.253Z,36.70
2022-08-05T15:41:01.710Z,36.70
2022-08-05T15:43:20.074Z,36.70
2022-08-05T15:45:48.087Z,36.70
2022-08-05T15:48:28.323Z,36.60
2022-08-05T15:50:55.156Z,36.60
2022-08-05T15:53:23.269Z,36.30
2022-08-05T15:56:01.945Z,35.10
2022-08-05T15:58:35.551Z,33.00
2022-08-05T16:01:17.313Z,31.80
2022-08-05T16:03:48.443Z,30.90
2022-08-05T16:06:20.336Z,30.80
2022-08-05T16:08:47.654Z,30.40
2022-08-05T16:11:14.391Z,30.00
2022-08-05T16:13:41.720Z,29.90
2022-08-05T16:16:10.776Z,30.10
2022-08-05T16:18:52.407Z,30.10
2022-08-05T16:21:20.767Z,29.90
2022-08-05T16:24:36.073Z,30.00
2022-08-05T16:26:57.073Z,30.00
2022-08-05T16:29:24.991Z,29.70
2022-08-05T16:31:57.022Z,29.70
2022-08-05T16:34:25.804Z,29.60
2022-08-05T16:36:53.494Z,29.60
2022-08-05T16:39:20.989Z,29.70
2022-08-05T16:42:13.786Z,29.80
2022-08-05T16:44:34.951Z,29.60
2022-08-05T16:47:04.587Z,29.40
2022-08-05T16:49:31.394Z,29.40
2022-08-05T16:51:58.147Z,29.50
2022-08-05T16:54:31.918Z,29.30
2022-08-05T16:57:00.124Z,29.20
2022-08-05T16:59:30.773Z,29.00
2022-08-05T17:01:57.895Z,28.80
2022-08-05T17:04:27.799Z,28.80
2022-08-05T17:07:00.639Z,28.70
2022-08-05T17:09:56.006Z,29.00
2022-08-05T17:12:17.855Z,28.70
2022-08-05T17:14:49.882Z,29.00
2022-08-05T17:17:16.680Z,29.00
2022-08-05T17:19:46.567Z,28.60
2022-08-05T17:22:25.499Z,28.70
2022-08-05T17:24:57.822Z,28.70
2022-08-05T17:27:34.290Z,28.60
2022-08-05T17:30:02.769Z,28.80
2022-08-05T17:32:30.182Z,29.50
2022-08-05T17:35:00.548Z,28.70
2022-08-05T17:37:41.592Z,28.70
2022-08-05T17:40:15.843Z,29.10
2022-08-05T17:42:51.439Z,29.30
2022-08-05T17:45:22.417Z,29.40
2022-08-05T17:47:55.533Z,29.70
2022-08-05T17:50:28.116Z,29.90
2022-08-05T17:52:58.864Z,29.70
2022-08-05T17:55:34.462Z,29.70
2022-08-05T17:58:06.845Z,29.50
2022-08-05T18:00:34.643Z,29.40
2022-08-05T18:03:02.385Z,29.10
2022-08-05T18:05:35.382Z,28.80
2022-08-05T18:08:03.123Z,28.70
2022-08-05T18:10:32.070Z,28.90
2022-08-05T18:13:01.974Z,28.60
2022-08-05T18:15:35.073Z,28.80
2022-08-05T18:18:11.157Z,29.10
2022-08-05T18:20:38.206Z,29.00
2022-08-05T18:23:11.841Z,29.20
2022-08-05T18:25:45.213Z,29.20
2022-08-05T18:28:16.552Z,29.20
2022-08-05T18:30:51.124Z,29.40
2022-08-05T18:33:22.697Z,29.50
2022-08-05T18:36:03.464Z,29.60
2022-08-05T18:38:37.040Z,29.60
2022-08-05T18:41:56.163Z,29.70
2022-08-05T18:43:52.611Z,29.90
2022-08-05T18:46:20.315Z,30.00
2022-08-05T18:48:48.351Z,30.00
2022-08-05T18:52:06.810Z,30.00
2022-08-05T18:54:31.416Z,30.00
2022-08-05T18:57:00.986Z,29.90
2022-08-05T18:59:43.032Z,29.80
2022-08-05T19:02:27.899Z,30.00
2022-08-05T19:05:01.542Z,30.00
2022-08-05T19:07:45.032Z,30.00
2022-08-05T19:10:12.538Z,30.00
2022-08-05T19:12:39.296Z,30.30
2022-08-05T19:15:06.476Z,30.30
2022-08-05T19:18:08.273Z,30.10
2022-08-05T19:20:41.673Z,30.20
2022-08-05T19:24:05.996Z,31.10
2022-08-05T19:26:02.062Z,30.50
2022-08-05T19:28:30.936Z,30.50
2022-08-05T19:30:57.916Z,30.40
2022-08-05T19:33:35.604Z,30.50
2022-08-05T19:36:06.169Z,30.40
2022-08-05T19:38:36.861Z,30.40
2022-08-05T19:41:08.985Z,30.40
2022-08-05T19:44:06.317Z,30.40
2022-08-05T19:46:29.772Z,30.40
2022-08-05T19:49:03.474Z,30.30
2022-08-05T19:52:04.300Z,30.30
2022-08-05T19:54:31.094Z,30.50
2022-08-05T19:56:59.580Z,30.90
2022-08-05T20:00:00.938Z,31.00
2022-08-05T20:02:15.006Z,31.10
2022-08-05T20:04:46.144Z,31.40
2022-08-05T20:07:13.964Z,31.30
2022-08-05T20:09:55.170Z,31.50
2022-08-05T20:12:24.918Z,31.60
2022-08-05T20:14:53.020Z,31.60
2022-08-05T20:17:23.641Z,31.80
2022-08-05T20:19:56.730Z,32.10
2022-08-05T20:22:25.027Z,32.10
2022-08-05T20:24:54.837Z,32.20
2022-08-05T20:27:26.694Z,32.50
2022-08-05T20:29:58.472Z,32.50
2022-08-05T20:32:26.473Z,32.60
2022-08-05T20:34:53.597Z,32.80
2022-08-05T20:38:04.964Z,32.90
2022-08-05T20:40:08.032Z,33.00
2022-08-05T20:42:35.543Z,33.10
2022-08-05T20:45:03.006Z,33.10
2022-08-05T20:47:32.051Z,33.30
2022-08-05T20:50:01.901Z,33.60
2022-08-05T20:52:29.192Z,33.70
2022-08-05T20:55:54.246Z,34.00
2022-08-05T20:57:44.665Z,34.20
2022-08-05T21:00:41.085Z,34.30
2022-08-05T21:03:06.148Z,34.20
2022-08-05T21:05:48.250Z,34.20
2022-08-05T21:08:32.942Z,34.10
2022-08-05T21:11:15.183Z,34.30
2022-08-05T21:14:00.170Z,34.50
2022-08-05T21:16:29.921Z,34.60
2022-08-05T21:19:00.095Z,34.50
2022-08-05T21:21:39.119Z,34.70
2022-08-05T21:24:12.523Z,34.80
2022-08-05T21:26:41.433Z,34.90
2022-08-05T21:29:12.644Z,35.10
2022-08-05T21:31:43.795Z,35.20
2022-08-05T21:34:11.275Z,35.40
2022-08-05T21:36:38.516Z,35.50
2022-08-05T21:39:05.448Z,35.60
2022-08-05T21:41:35.542Z,35.70
2022-08-05T21:44:04.634Z,35.80
2022-08-05T21:46:34.998Z,35.90
2022-08-05T21:49:07.109Z,35.90
2022-08-05T21:52:22.405Z,36.00
2022-08-05T21:54:30.930Z,35.90
2022-08-05T21:57:29.937Z,35.80
2022-08-05T22:00:02.041Z,35.90
2022-08-05T22:02:30.885Z,36.10
2022-08-05T22:04:58.590Z,36.10
2022-08-05T22:07:40.508Z,36.20
2022-08-05T22:10:14.164Z,36.20
2022-08-05T22:12:44.774Z,36.20
2022-08-05T22:16:02.755Z,36.60
2022-08-05T22:18:05.982Z,36.60
2022-08-05T22:20:32.879Z,36.50
2022-08-05T22:23:21.840Z,36.60
2022-08-05T22:26:09.633Z,36.70
2022-08-05T22:28:38.613Z,36.70
2022-08-05T22:31:06.282Z,36.70
2022-08-05T22:33:56.911Z,36.80
2022-08-05T22:36:23.866Z,36.80
2022-08-05T22:38:51.697Z,36.70
2022-08-05T22:41:26.200Z,36.50
2022-08-05T22:44:08.414Z,36.70
2022-08-05T22:46:40.149Z,36.70
2022-08-05T22:49:23.203Z,36.50
2022-08-05T22:52:04.967Z,36.90
2022-08-05T22:54:33.707Z,36.80
2022-08-05T22:57:00.469Z,36.70
2022-08-05T22:59:43.601Z,36.80
2022-08-05T23:02:14.001Z,36.80
2022-08-05T23:04:43.899Z,36.90
2022-08-05T23:07:18.437Z,37.00
2022-08-05T23:09:57.610Z,36.90
2022-08-05T23:12:32.750Z,37.00
2022-08-05T23:15:03.487Z,36.90
2022-08-05T23:17:34.249Z,36.70
2022-08-05T23:20:06.582Z,36.90
2022-08-05T23:22:43.723Z,36.80
2022-08-05T23:25:17.177Z,36.90
2022-08-05T23:28:01.566Z,37.20
2022-08-05T23:30:29.180Z,38.10
2022-08-05T23:32:58.834Z,37.70
2022-08-05T23:35:34.095Z,37.70
2022-08-05T23:38:01.306Z,37.80
2022-08-05T23:40:28.166Z,37.80
2022-08-05T23:42:54.989Z,38.00
2022-08-05T23:45:23.703Z,38.10
2022-08-05T23:47:53.581Z,38.40
2022-08-05T23:50:20.701Z,38.50
2022-08-05T23:52:49.545Z,38.50
2022-08-05T23:55:17.938Z,38.50
2022-08-05T23:57:44.667Z,38.40
